Time;durP1;ratioP1;P1;durP2;ratioP2;P2;SDS_P1;SDS_P2;PMS_P1;PMS_P2;Temp;Humidity;BMP_temperature;BMP_pressure;BME280_temperature;BME280_humidity;BME280_pressure;Samples;Min_cycle;Max_cycle;Signal;HPM_P1;HPM_P2
2022/08/21 00:00:47;;;;;;;9.20;3.22;;;15.00;99.90;;;;;;5031803;28;20041;-66
2022/08/21 00:03:14;;;;;;;8.05;3.92;;;15.30;99.90;;;;;;5031838;28;20061;-66
2022/08/21 00:05:42;;;;;;;7.72;3.33;;;15.10;99.90;;;;;;5013988;28;20044;-66
2022/08/21 00:08:08;;;;;;;9.63;3.72;;;15.20;99.90;;;;;;5014161;28;20041;-65
2022/08/21 00:10:34;;;;;;;9.02;3.20;;;15.20;99.90;;;;;;5031931;28;20442;-65
2022/08/21 00:13:01;;;;;;;5.93;3.00;;;15.30;99.90;;;;;;5031688;28;20123;-64
2022/08/21 00:15:29;;;;;;;7.07;3.30;;;15.10;99.90;;;;;;5031870;28;20045;-64
2022/08/21 00:17:56;;;;;;;5.07;3.10;;;14.90;99.90;;;;;;5018385;28;20084;-65
2022/08/21 00:20:22;;;;;;;6.93;3.47;;;14.70;99.90;;;;;;5031476;28;20056;-65
2022/08/21 00:22:48;;;;;;;6.03;2.75;;;14.80;99.90;;;;;;5014112;28;20468;-65
2022/08/21 00:25:15;;;;;;;6.72;3.20;;;14.70;99.90;;;;;;5031734;28;20132;-65
2022/08/21 00:27:44;;;;;;;7.38;3.50;;;14.50;99.90;;;;;;5031702;28;20092;-65
2022/08/21 00:30:11;;;;;;;8.40;3.25;;;14.50;99.90;;;;;;5031739;28;20396;-64
2022/08/21 00:32:38;;;;;;;5.30;2.88;;;14.60;99.90;;;;;;5035106;28;20056;-65
2022/08/21 00:35:11;;;;;;;10.07;4.50;;;14.60;99.90;;;;;;5035157;28;20037;-65
2022/08/21 00:37:40;;;;;;;5.45;2.97;;;14.60;99.90;;;;;;5034857;28;20041;-64
2022/08/21 00:40:09;;;;;;;8.63;3.53;;;14.60;99.90;;;;;;5034889;28;20065;-64
2022/08/21 00:42:34;;;;;;;6.03;2.50;;;14.70;99.90;;;;;;5034860;28;20041;-65
2022/08/21 00:45:01;;;;;;;5.78;3.00;;;14.80;99.90;;;;;;5034775;28;20514;-65
2022/08/21 00:47:26;;;;;;;7.80;4.18;;;14.60;99.90;;;;;;5030750;28;20085;-65
2022/08/21 00:49:52;;;;;;;6.85;3.63;;;14.60;99.90;;;;;;5034881;28;20076;-65
2022/08/21 00:52:23;;;;;;;6.50;3.65;;;14.80;99.90;;;;;;5033044;28;20048;-65
2022/08/21 00:54:50;;;;;;;7.45;4.65;;;14.80;99.90;;;;;;5026387;28;20045;-65
2022/08/21 00:57:21;;;;;;;7.43;5.20;;;15.10;99.90;;;;;;5034551;28;20045;-65
2022/08/21 00:59:50;;;;;;;10.20;5.20;;;14.80;99.90;;;;;;5004296;28;20384;-65
2022/08/21 01:02:17;;;;;;;9.05;4.85;;;14.80;99.90;;;;;;5000278;28;20120;-66
2022/08/21 01:04:43;;;;;;;13.43;4.80;;;14.90;99.90;;;;;;5016627;28;20057;-66
2022/08/21 01:07:09;;;;;;;9.13;5.55;;;14.80;99.90;;;;;;5034486;28;20372;-66
2022/08/21 01:09:36;;;;;;;8.35;5.13;;;14.90;99.90;;;;;;5016614;28;20053;-66
2022/08/21 01:12:03;;;;;;;10.48;3.92;;;15.10;99.90;;;;;;5034369;28;20041;-66
2022/08/21 01:14:30;;;;;;;4.65;3.40;;;14.90;99.90;;;;;;5016724;28;20125;-66
2022/08/21 01:16:57;;;;;;;6.10;4.10;;;14.50;99.90;;;;;;5033948;28;20456;-66
2022/08/21 01:19:23;;;;;;;9.35;4.20;;;14.40;99.90;;;;;;5034345;28;20084;-65
2022/08/21 01:21:49;;;;;;;7.95;5.10;;;14.60;99.90;;;;;;5034116;28;20038;-65
2022/08/21 01:24:15;;;;;;;9.88;5.45;;;14.70;99.90;;;;;;5034290;28;20032;-66
2022/08/21 01:26:42;;;;;;;9.82;6.25;;;14.70;99.90;;;;;;5016629;28;20041;-66
2022/08/21 01:29:28;;;;;;;9.52;6.40;;;14.70;99.90;;;;;;5034347;28;20049;-66
2022/08/21 01:31:54;;;;;;;9.98;5.07;;;14.80;99.90;;;;;;5016386;28;20045;-66
2022/08/21 01:34:19;;;;;;;9.23;5.90;;;14.60;99.90;;;;;;5033933;28;20025;-66
2022/08/21 01:36:46;;;;;;;11.82;6.70;;;14.70;99.90;;;;;;5016000;28;20133;-66
2022/08/21 01:39:12;;;;;;;8.63;5.95;;;14.60;99.90;;;;;;5033934;28;20099;-66
2022/08/21 01:41:37;;;;;;;8.75;6.32;;;14.70;99.90;;;;;;5033733;28;20508;-65
2022/08/21 01:44:03;;;;;;;9.57;7.03;;;14.60;99.90;;;;;;5033670;28;20487;-65
2022/08/21 01:46:29;;;;;;;13.13;6.35;;;14.60;99.90;;;;;;5033663;28;20061;-65
2022/08/21 01:48:54;;;;;;;12.43;7.28;;;14.40;99.90;;;;;;5016044;28;20077;-66
2022/08/21 01:51:20;;;;;;;13.52;7.22;;;14.50;99.90;;;;;;4999293;28;20483;-65
2022/08/21 01:53:46;;;;;;;10.35;6.68;;;14.70;99.90;;;;;;5033709;28;20056;-66
2022/08/21 01:56:13;;;;;;;13.77;6.45;;;14.60;99.90;;;;;;5033753;28;20037;-66
2022/08/21 01:58:45;;;;;;;14.07;7.05;;;14.70;99.90;;;;;;5015619;28;20069;-65
2022/08/21 02:01:10;;;;;;;15.43;7.35;;;14.50;99.90;;;;;;5033152;28;20073;-64
2022/08/21 02:03:37;;;;;;;10.27;6.70;;;14.60;99.90;;;;;;5033057;28;20139;-65
2022/08/21 02:06:04;;;;;;;9.93;6.90;;;14.70;99.90;;;;;;5033154;28;20053;-66
2022/08/21 02:08:31;;;;;;;8.80;6.82;;;14.50;99.90;;;;;;5015650;28;20116;-66
2022/08/21 02:10:56;;;;;;;13.38;7.10;;;14.50;99.90;;;;;;5033434;28;20095;-66
2022/08/21 02:13:22;;;;;;;10.35;7.10;;;14.70;99.90;;;;;;5033205;28;20041;-64
2022/08/21 02:15:48;;;;;;;8.35;6.72;;;14.70;99.90;;;;;;5033141;28;20049;-65
2022/08/21 02:18:14;;;;;;;11.13;7.55;;;14.50;99.90;;;;;;5015451;28;20034;-65
2022/08/21 02:20:44;;;;;;;14.18;8.05;;;14.60;99.90;;;;;;5015235;28;20492;-66
2022/08/21 02:23:10;;;;;;;14.55;8.60;;;14.60;99.90;;;;;;5033232;28;20060;-66
2022/08/21 02:25:37;;;;;;;11.25;7.18;;;;;;;;;;5032834;28;20506;-66
2022/08/21 02:28:06;;;;;;;14.65;7.90;;;14.50;99.90;;;;;;5032663;28;20500;-66
2022/08/21 02:30:37;;;;;;;13.95;8.63;;;14.50;99.90;;;;;;5032807;28;20025;-65
2022/08/21 02:33:04;;;;;;;17.63;8.93;;;14.40;99.90;;;;;;5015065;28;20037;-66
2022/08/21 02:35:30;;;;;;;15.43;8.05;;;14.40;99.90;;;;;;5015171;28;20081;-66
2022/08/21 02:37:59;;;;;;;14.68;8.30;;;14.40;99.90;;;;;;5032844;28;20041;-66
2022/08/21 02:40:30;;;;;;;15.45;7.75;;;14.50;99.90;;;;;;5015075;28;20522;-65
2022/08/21 02:42:55;;;;;;;12.45;8.52;;;14.40;99.90;;;;;;5014917;28;20048;-64
2022/08/21 02:45:21;;;;;;;16.20;9.38;;;14.40;99.90;;;;;;5032659;28;20127;-66
2022/08/21 02:47:49;;;;;;;15.13;9.02;;;14.40;99.90;;;;;;5019294;28;20040;-66
2022/08/21 02:50:20;;;;;;;12.27;8.65;;;14.30;99.90;;;;;;5033062;28;20034;-66
2022/08/21 02:52:45;;;;;;;12.30;8.07;;;14.40;99.90;;;;;;5032120;28;20041;-65
2022/08/21 02:55:11;;;;;;;15.43;9.45;;;14.30;99.90;;;;;;5014488;28;20050;-65
2022/08/21 02:57:37;;;;;;;15.93;8.88;;;14.20;99.90;;;;;;5032370;28;20043;-66
2022/08/21 03:00:05;;;;;;;17.13;9.15;;;14.20;99.90;;;;;;5032139;28;20172;-65
2022/08/21 03:02:30;;;;;;;14.23;7.85;;;14.40;99.90;;;;;;5032660;28;20041;-65
2022/08/21 03:04:56;;;;;;;12.48;7.93;;;14.20;99.90;;;;;;5032097;28;20057;-66
2022/08/21 03:07:22;;;;;;;12.32;8.48;;;;;;;;;;5032343;28;20108;-66
2022/08/21 03:09:48;;;;;;;16.20;8.32;;;14.50;99.90;;;;;;5032042;28;20033;-65
2022/08/21 03:12:13;;;;;;;10.45;8.18;;;14.30;99.90;;;;;;5032172;28;20044;-65
2022/08/21 03:14:39;;;;;;;13.48;7.85;;;14.30;99.90;;;;;;5014508;28;20038;-65
2022/08/21 03:17:05;;;;;;;20.40;9.43;;;14.40;99.90;;;;;;4998175;28;20042;-66
2022/08/21 03:19:30;;;;;;;13.98;8.35;;;14.30;99.90;;;;;;5032416;28;20120;-66
2022/08/21 03:21:56;;;;;;;16.05;8.30;;;14.40;99.90;;;;;;5014112;28;20459;-65
2022/08/21 03:24:21;;;;;;;14.02;8.63;;;14.30;99.90;;;;;;5032264;28;20483;-65
2022/08/21 03:26:47;;;;;;;15.02;8.70;;;14.30;99.90;;;;;;5014113;28;20400;-64
2022/08/21 03:29:13;;;;;;;13.93;8.40;;;14.30;99.90;;;;;;5032133;28;20460;-65
2022/08/21 03:31:39;;;;;;;15.57;8.18;;;14.30;99.90;;;;;;5032383;28;20124;-65
2022/08/21 03:34:04;;;;;;;13.00;8.35;;;14.40;99.90;;;;;;5014709;28;20033;-65
2022/08/21 03:36:30;;;;;;;12.43;8.35;;;14.40;99.90;;;;;;5032336;28;20053;-66
2022/08/21 03:38:56;;;;;;;12.30;8.65;;;14.30;99.90;;;;;;5032226;28;20124;-65
2022/08/21 03:41:22;;;;;;;13.30;7.63;;;14.30;99.90;;;;;;5031977;28;20461;-65
2022/08/21 03:43:47;;;;;;;11.85;7.80;;;14.20;99.90;;;;;;5032100;28;20052;-65
2022/08/21 03:46:13;;;;;;;13.98;8.30;;;14.20;99.90;;;;;;5032223;28;20038;-66
2022/08/21 03:48:39;;;;;;;16.58;9.25;;;14.30;99.90;;;;;;5032004;28;20041;-66
2022/08/21 03:51:06;;;;;;;13.40;8.10;;;14.20;99.90;;;;;;5031758;28;20502;-66
2022/08/21 03:53:32;;;;;;;10.82;7.90;;;;;;;;;;5031767;28;20048;-65
2022/08/21 03:55:58;;;;;;;17.50;8.50;;;;;;;;;;5014106;28;20062;-62
2022/08/21 03:58:26;;;;;;;11.48;7.60;;;14.20;99.90;;;;;;5032034;28;20088;-65
2022/08/21 04:00:56;;;;;;;13.20;7.97;;;14.30;99.90;;;;;;5014246;28;20115;-65
2022/08/21 04:03:22;;;;;;;12.57;8.13;;;14.40;99.90;;;;;;5032039;28;20061;-65
2022/08/21 04:05:48;;;;;;;11.20;7.32;;;14.10;99.90;;;;;;5034744;28;20444;-65
2022/08/21 04:08:15;;;;;;;13.23;8.35;;;14.00;99.90;;;;;;5035475;28;20368;-64
2022/08/21 04:10:46;;;;;;;16.60;8.10;;;14.10;99.90;;;;;;5035662;28;20087;-66
2022/08/21 04:13:12;;;;;;;12.23;7.75;;;14.20;99.90;;;;;;5035342;28;20456;-65
2022/08/21 04:15:38;;;;;;;14.35;7.70;;;14.10;99.90;;;;;;5035800;28;20076;-65
2022/08/21 04:18:04;;;;;;;11.93;7.88;;;14.20;99.90;;;;;;5035639;28;20454;-66
2022/08/21 04:20:30;;;;;;;11.93;7.28;;;14.20;99.90;;;;;;5017542;28;20045;-65
2022/08/21 04:22:56;;;;;;;13.02;8.07;;;14.10;99.90;;;;;;5017305;28;20407;-64
2022/08/21 04:25:25;;;;;;;15.43;7.75;;;14.00;99.90;;;;;;5017318;28;20045;-65
2022/08/21 04:27:51;;;;;;;9.73;7.68;;;14.00;99.90;;;;;;5017649;28;20111;-65
2022/08/21 04:30:16;;;;;;;11.85;8.13;;;14.20;99.90;;;;;;5035039;28;20487;-65
2022/08/21 04:32:45;;;;;;;11.23;7.93;;;14.00;99.90;;;;;;5035496;28;20085;-66
2022/08/21 04:35:12;;;;;;;12.77;7.93;;;14.00;99.90;;;;;;5035069;28;20042;-65
2022/08/21 04:37:37;;;;;;;12.27;7.35;;;14.10;99.90;;;;;;5034575;28;20041;-65
2022/08/21 04:40:04;;;;;;;9.82;7.28;;;14.10;99.90;;;;;;5034935;28;20170;-65
2022/08/21 04:42:30;;;;;;;14.27;7.97;;;13.90;99.90;;;;;;5017105;28;20041;-65
2022/08/21 04:44:57;;;;;;;13.60;8.77;;;14.20;99.90;;;;;;5017199;28;20048;-65
2022/08/21 04:47:23;;;;;;;13.52;7.50;;;14.00;99.90;;;;;;5034841;28;20048;-65
2022/08/21 04:49:50;;;;;;;12.55;8.18;;;14.00;99.90;;;;;;5000465;28;20042;-66
2022/08/21 04:52:22;;;;;;;10.88;7.65;;;14.10;99.90;;;;;;5016738;28;20045;-65
2022/08/21 04:54:49;;;;;;;15.75;8.07;;;14.00;99.90;;;;;;5004168;28;20045;-65
2022/08/21 04:57:15;;;;;;;16.27;7.45;;;14.10;99.90;;;;;;5034899;28;20041;-66
2022/08/21 04:59:45;;;;;;;9.80;7.07;;;14.20;99.90;;;;;;5030664;28;20072;-65
2022/08/21 05:02:12;;;;;;;10.15;6.97;;;14.10;99.90;;;;;;5017084;28;20080;-65
2022/08/21 05:04:41;;;;;;;16.02;8.25;;;14.10;99.90;;;;;;5034192;28;20408;-65
2022/08/21 05:07:14;;;;;;;12.70;7.72;;;14.10;99.90;;;;;;5020550;28;20069;-63
2022/08/21 05:09:40;;;;;;;12.63;7.32;;;14.00;99.90;;;;;;5017214;28;20053;-65
2022/08/21 05:12:06;;;;;;;13.52;7.60;;;14.10;99.90;;;;;;5034438;28;20033;-65
2022/08/21 05:14:32;;;;;;;11.88;7.25;;;14.10;99.90;;;;;;5034700;28;20041;-65
2022/08/21 05:16:58;;;;;;;13.07;7.28;;;14.20;99.90;;;;;;5033516;28;20048;-65
2022/08/21 05:19:24;;;;;;;15.13;8.40;;;14.20;99.90;;;;;;5016484;28;20138;-63
2022/08/21 05:21:49;;;;;;;9.32;7.07;;;14.30;99.90;;;;;;5016132;28;20499;-63
2022/08/21 05:24:16;;;;;;;12.77;7.20;;;14.30;99.90;;;;;;5034664;28;20040;-64
2022/08/21 05:26:41;;;;;;;13.13;7.10;;;14.40;99.90;;;;;;5034340;28;20042;-64
2022/08/21 05:29:07;;;;;;;12.40;6.45;;;14.50;99.90;;;;;;5034012;28;20042;-64
2022/08/21 05:31:33;;;;;;;14.13;7.10;;;14.50;99.90;;;;;;5015775;28;20064;-64
2022/08/21 05:33:59;;;;;;;11.95;6.50;;;14.50;99.90;;;;;;5016174;28;20033;-64
2022/08/21 05:36:24;;;;;;;9.73;6.03;;;14.60;99.90;;;;;;5033884;28;20052;-65
2022/08/21 05:38:50;;;;;;;14.93;6.78;;;14.70;99.90;;;;;;5034126;28;20120;-65
2022/08/21 05:41:16;;;;;;;12.85;6.00;;;14.80;99.90;;;;;;5033440;28;20045;-65
2022/08/21 05:43:41;;;;;;;12.35;6.30;;;14.80;99.90;;;;;;5033680;28;20033;-64
2022/08/21 05:46:07;;;;;;;11.20;5.35;;;14.80;99.90;;;;;;5015829;28;20474;-65
2022/08/21 05:48:33;;;;;;;11.20;6.60;;;14.90;99.90;;;;;;5033860;28;20503;-64
2022/08/21 05:51:08;;;;;;;13.35;6.35;;;15.10;99.90;;;;;;5004359;28;20120;-63
2022/08/21 05:53:33;;;;;;;11.48;5.97;;;15.10;99.90;;;;;;5014318;28;20042;-65
2022/08/21 05:55:59;;;;;;;12.05;6.30;;;;;;;;;;5031765;28;20040;-65
2022/08/21 05:58:25;;;;;;;11.88;6.18;;;15.20;99.90;;;;;;5032623;28;20454;-65
2022/08/21 06:00:52;;;;;;;11.85;6.63;;;15.30;99.90;;;;;;5016113;28;20041;-65
2022/08/21 06:03:24;;;;;;;9.68;6.15;;;15.50;99.90;;;;;;5013432;28;20057;-65
2022/08/21 06:05:50;;;;;;;11.98;6.55;;;15.50;99.90;;;;;;5003835;28;20127;-65
2022/08/21 06:08:17;;;;;;;11.68;6.07;;;15.90;99.90;;;;;;5031372;28;20042;-65
2022/08/21 06:10:44;;;;;;;11.93;5.45;;;16.40;99.90;;;;;;5031707;28;20561;-65
2022/08/21 06:13:11;;;;;;;10.02;4.68;;;17.20;99.90;;;;;;5032105;28;20064;-65
2022/08/21 06:15:37;;;;;;;8.45;3.97;;;17.50;99.90;;;;;;5014582;28;20045;-64
2022/08/21 06:18:03;;;;;;;13.85;4.03;;;18.20;99.90;;;;;;5032026;28;20605;-65
2022/08/21 06:20:28;;;;;;;9.45;3.47;;;20.70;99.90;;;;;;5031637;28;20073;-64
2022/08/21 06:22:54;;;;;;;8.65;3.83;;;19.90;99.90;;;;;;5013920;28;20095;-65
2022/08/21 06:25:20;;;;;;;9.98;3.97;;;20.60;99.90;;;;;;5032031;28;20045;-65
2022/08/21 06:27:46;;;;;;;7.45;2.72;;;21.00;99.90;;;;;;5013191;28;20044;-64
2022/08/21 06:30:12;;;;;;;7.30;4.05;;;21.10;99.90;;;;;;5013922;28;20049;-64
2022/08/21 06:32:38;;;;;;;9.25;3.10;;;21.90;99.90;;;;;;5030905;28;20048;-64
2022/08/21 06:35:04;;;;;;;6.50;2.10;;;21.80;99.90;;;;;;5031745;28;20411;-65
2022/08/21 06:37:31;;;;;;;8.40;2.80;;;22.30;99.90;;;;;;5031564;28;20029;-65
2022/08/21 06:39:56;;;;;;;11.40;3.78;;;22.60;99.90;;;;;;5031555;28;20048;-65
2022/08/21 06:42:22;;;;;;;8.52;2.08;;;23.10;99.90;;;;;;5030913;28;20041;-65
2022/08/21 06:44:47;;;;;;;4.72;2.03;;;23.10;99.90;;;;;;5017155;28;20037;-64
2022/08/21 06:47:14;;;;;;;6.72;2.58;;;23.40;99.90;;;;;;5013489;28;20033;-64
2022/08/21 06:49:39;;;;;;;7.55;2.10;;;23.70;99.90;;;;;;5031611;28;20160;-65
2022/08/21 06:52:09;;;;;;;7.72;2.13;;;23.80;99.90;;;;;;5030809;28;20533;-64
2022/08/21 06:54:35;;;;;;;6.25;1.65;;;24.20;99.90;;;;;;5031394;28;20033;-63
2022/08/21 06:57:01;;;;;;;8.40;1.92;;;24.10;99.90;;;;;;5030637;28;20094;-63
2022/08/21 06:59:27;;;;;;;7.95;1.83;;;24.40;99.90;;;;;;5030317;28;20368;-62
2022/08/21 07:01:52;;;;;;;6.85;2.22;;;24.60;99.90;;;;;;5011714;28;20045;-62
2022/08/21 07:04:19;;;;;;;8.00;2.20;;;25.00;99.90;;;;;;5030611;28;20060;-62
2022/08/21 07:06:45;;;;;;;6.53;1.75;;;25.30;99.90;;;;;;5012786;28;20091;-62
2022/08/21 07:09:11;;;;;;;6.13;1.75;;;25.50;99.90;;;;;;5014212;28;20049;-64
2022/08/21 07:11:37;;;;;;;5.28;1.33;;;24.90;99.90;;;;;;5029666;28;20041;-63
2022/08/21 07:14:03;;;;;;;8.93;1.90;;;24.60;99.90;;;;;;5030985;28;20076;-62
2022/08/21 07:16:29;;;;;;;12.75;2.42;;;23.60;99.90;;;;;;5030772;28;20049;-62
2022/08/21 07:18:55;;;;;;;6.07;1.55;;;22.70;99.90;;;;;;5030643;28;20045;-62
2022/08/21 07:21:21;;;;;;;11.25;1.58;;;22.20;99.90;;;;;;5012767;28;20045;-61
2022/08/21 07:23:50;;;;;;;7.10;2.35;;;22.70;99.90;;;;;;5030720;28;20502;-62
2022/08/21 07:26:20;;;;;;;6.50;2.20;;;21.40;99.90;;;;;;5029692;28;20072;-63
2022/08/21 07:28:46;;;;;;;8.30;2.45;;;21.00;99.90;;;;;;5010984;28;20075;-63
2022/08/21 07:31:15;;;;;;;9.23;2.45;;;21.00;99.90;;;;;;5030235;28;20061;-64
2022/08/21 07:33:41;;;;;;;10.18;2.13;;;20.40;99.90;;;;;;5029738;28;20403;-63
2022/08/21 07:36:07;;;;;;;7.43;1.77;;;20.40;99.90;;;;;;5030130;28;20072;-65
2022/08/21 07:38:33;;;;;;;4.97;1.90;;;20.00;99.90;;;;;;5012950;28;20103;-64
2022/08/21 07:41:01;;;;;;;6.82;2.28;;;20.20;99.90;;;;;;5032400;28;20431;-62
2022/08/21 07:43:27;;;;;;;6.22;1.85;;;20.00;99.90;;;;;;5027140;28;20099;-62
2022/08/21 07:45:56;;;;;;;9.23;1.75;;;20.20;99.90;;;;;;5034053;28;20127;-61
2022/08/21 07:48:22;;;;;;;8.57;1.92;;;20.00;99.90;;;;;;5018891;28;20129;-62
2022/08/21 07:50:49;;;;;;;16.73;2.20;;;20.10;99.90;;;;;;5033357;28;20148;-62
2022/08/21 07:53:15;;;;;;;5.93;1.70;;;20.10;99.90;;;;;;5027069;28;20069;-62
2022/08/21 07:55:41;;;;;;;11.73;2.05;;;20.10;99.90;;;;;;5015294;28;20495;-62
2022/08/21 07:58:07;;;;;;;7.88;1.85;;;20.20;99.90;;;;;;5033429;28;20084;-63
2022/08/21 08:00:34;;;;;;;9.30;1.80;;;20.10;99.90;;;;;;5032992;28;20041;-63
2022/08/21 08:02:59;;;;;;;9.35;2.25;;;20.30;99.90;;;;;;5032174;28;20045;-63
2022/08/21 08:05:27;;;;;;;7.10;2.15;;;20.10;99.90;;;;;;5033524;28;20131;-63
2022/08/21 08:07:53;;;;;;;12.27;2.30;;;20.20;99.90;;;;;;5032842;28;20509;-62
2022/08/21 08:10:20;;;;;;;10.65;2.75;;;20.40;99.90;;;;;;5015477;28;20037;-62
2022/08/21 08:12:46;;;;;;;8.52;1.60;;;20.30;99.90;;;;;;5032775;28;20541;-64
2022/08/21 08:15:16;;;;;;;7.32;2.03;;;20.50;99.90;;;;;;5015766;28;20041;-63
2022/08/21 08:17:41;;;;;;;13.70;2.25;;;20.30;99.90;;;;;;5016292;28;20046;-63
2022/08/21 08:20:09;;;;;;;7.30;1.73;;;20.60;99.90;;;;;;5016154;28;20116;-64
2022/08/21 08:22:37;;;;;;;11.27;1.90;;;20.20;99.90;;;;;;5003903;28;20053;-64
2022/08/21 08:25:04;;;;;;;9.80;2.05;;;20.80;99.90;;;;;;5020086;28;20048;-63
2022/08/21 08:27:29;;;;;;;7.63;2.28;;;20.70;99.90;;;;;;5002074;28;20081;-62
2022/08/21 08:29:55;;;;;;;8.68;1.85;;;20.90;99.90;;;;;;5015053;28;20492;-63
2022/08/21 08:32:21;;;;;;;11.60;2.10;;;20.70;99.90;;;;;;5000653;28;20404;-63
2022/08/21 08:34:48;;;;;;;7.45;2.10;;;21.00;99.90;;;;;;4995806;28;20030;-62
2022/08/21 08:37:14;;;;;;;12.77;2.53;;;21.10;99.90;;;;;;5003757;28;20056;-62
2022/08/21 08:39:40;;;;;;;12.02;2.47;;;21.00;99.90;;;;;;4997263;28;20132;-62
2022/08/21 08:42:13;;;;;;;12.20;3.10;;;20.90;99.90;;;;;;5014758;28;20087;-63
2022/08/21 08:44:42;;;;;;;9.70;1.83;;;20.90;99.90;;;;;;5019132;28;20092;-62
2022/08/21 08:47:10;;;;;;;13.60;2.22;;;21.20;99.90;;;;;;5017515;28;20133;-62
2022/08/21 08:50:02;;;;;;;8.60;1.90;;;21.00;99.90;;;;;;5002725;28;20069;-63
2022/08/21 08:52:30;;;;;;;11.23;3.75;;;21.20;99.90;;;;;;4998715;28;20046;-64
2022/08/21 08:55:20;;;;;;;7.55;2.45;;;21.20;99.90;;;;;;5006680;28;20403;-63
2022/08/21 08:57:47;;;;;;;9.30;2.00;;;21.50;99.90;;;;;;5024358;28;21046;-64
2022/08/21 09:00:16;;;;;;;10.73;2.05;;;21.30;99.90;;;;;;5021695;28;20046;-63
2022/08/21 09:02:43;;;;;;;8.25;1.85;;;21.10;99.90;;;;;;4994721;28;20079;-63
2022/08/21 09:05:22;;;;;;;9.32;2.00;;;21.40;99.90;;;;;;5000883;28;20057;-63
2022/08/21 09:08:00;;;;;;;9.00;2.17;;;21.40;99.90;;;;;;5017701;28;20389;-63
2022/08/21 09:10:33;;;;;;;8.82;2.05;;;21.50;99.90;;;;;;5025287;28;20045;-64
2022/08/21 09:13:18;;;;;;;9.93;2.53;;;21.50;99.90;;;;;;5014575;28;20400;-63
2022/08/21 09:16:24;;;;;;;8.43;2.43;;;21.40;99.90;;;;;;5016114;28;20050;-63
2022/08/21 09:19:01;;;;;;;7.38;2.25;;;21.70;99.90;;;;;;5012171;28;21008;-63
2022/08/21 09:21:37;;;;;;;8.73;2.20;;;21.60;99.90;;;;;;4998968;28;20727;-64
2022/08/21 09:24:22;;;;;;;9.77;2.20;;;21.60;99.90;;;;;;4998626;28;20076;-63
2022/08/21 09:27:00;;;;;;;10.25;1.80;;;21.80;99.90;;;;;;5013892;28;20041;-63
2022/08/21 09:29:31;;;;;;;13.93;2.15;;;22.00;99.90;;;;;;4997422;28;20046;-63
2022/08/21 09:31:56;;;;;;;9.63;2.13;;;24.00;99.90;;;;;;5017132;28;20056;-63
2022/08/21 09:34:28;;;;;;;9.18;1.75;;;22.50;99.90;;;;;;5016608;28;20038;-64
2022/08/21 09:36:54;;;;;;;9.20;2.03;;;22.40;99.90;;;;;;5019729;28;20118;-63
2022/08/21 09:39:39;;;;;;;14.65;2.10;;;22.60;99.90;;;;;;5028156;28;20069;-63
2022/08/21 09:42:07;;;;;;;9.07;1.92;;;22.80;99.90;;;;;;5024017;28;20037;-65
2022/08/21 09:44:42;;;;;;;12.25;2.13;;;22.60;99.90;;;;;;5011462;28;20046;-62
2022/08/21 09:47:12;;;;;;;5.55;1.60;;;22.50;99.90;;;;;;5011287;28;20160;-63
2022/08/21 09:49:41;;;;;;;11.38;1.90;;;22.40;99.90;;;;;;5029806;28;20450;-62
2022/08/21 09:52:21;;;;;;;9.70;2.03;;;22.20;99.90;;;;;;5005102;28;20518;-63
2022/08/21 09:54:52;;;;;;;8.48;1.83;;;22.20;99.90;;;;;;5007192;28;20041;-63
2022/08/21 09:57:38;;;;;;;9.98;2.25;;;22.50;99.90;;;;;;5011283;28;20045;-63
2022/08/21 10:00:29;;;;;;;8.27;2.25;;;22.40;99.90;;;;;;5011215;28;20038;-64
2022/08/21 10:03:12;;;;;;;12.80;2.47;;;22.00;99.90;;;;;;5013787;28;20049;-63
2022/08/21 10:05:39;;;;;;;8.95;2.05;;;22.10;99.90;;;;;;4996841;28;20081;-64
2022/08/21 10:08:20;;;;;;;5.13;1.92;;;22.20;99.90;;;;;;5013459;28;20045;-63
2022/08/21 10:10:49;;;;;;;11.48;2.00;;;22.40;99.90;;;;;;4994108;28;20033;-64
2022/08/21 10:13:21;;;;;;;12.60;2.50;;;24.60;99.90;;;;;;5013359;28;20096;-63
2022/08/21 10:16:15;;;;;;;11.73;2.30;;;22.40;99.90;;;;;;4998101;28;20053;-64
2022/08/21 10:19:02;;;;;;;8.27;1.92;;;22.70;99.90;;;;;;5026118;28;20041;-62
2022/08/21 10:21:43;;;;;;;9.13;2.13;;;23.00;99.90;;;;;;5011117;28;20403;-63
2022/08/21 10:24:13;;;;;;;8.15;2.17;;;22.70;99.90;;;;;;5026806;28;20454;-63
2022/08/21 10:27:04;;;;;;;15.80;3.40;;;23.00;99.90;;;;;;5010810;28;20424;-63
2022/08/21 10:29:32;;;;;;;10.55;1.48;;;23.40;99.90;;;;;;5028047;28;20037;-63
2022/08/21 10:32:20;;;;;;;5.97;1.45;;;23.50;99.90;;;;;;5028394;28;20712;-66
2022/08/21 10:34:50;;;;;;;7.50;1.48;;;23.50;99.90;;;;;;5008551;28;20045;-63
2022/08/21 10:37:28;;;;;;;8.65;1.67;;;23.10;99.90;;;;;;5008190;28;20058;-64
2022/08/21 10:39:59;;;;;;;7.80;1.73;;;23.20;99.90;;;;;;5017135;28;20041;-63
2022/08/21 10:42:38;;;;;;;6.32;1.63;;;23.10;99.90;;;;;;5014302;28;20042;-63
2022/08/21 10:45:12;;;;;;;6.18;1.58;;;23.20;99.90;;;;;;5016470;28;20049;-64
2022/08/21 10:47:50;;;;;;;9.55;1.38;;;23.10;99.90;;;;;;5017325;28;20488;-63
2022/08/21 10:50:41;;;;;;;10.70;1.60;;;22.80;99.90;;;;;;5012950;28;20044;-65
2022/08/21 10:53:18;;;;;;;7.93;1.50;;;23.10;99.90;;;;;;4997474;28;20037;-63
2022/08/21 10:56:02;;;;;;;7.72;1.38;;;22.80;99.90;;;;;;5016204;28;20048;-62
2022/08/21 10:58:37;;;;;;;10.88;1.60;;;22.90;99.90;;;;;;4996028;28;20058;-63
2022/08/21 11:01:15;;;;;;;6.55;1.45;;;22.90;99.90;;;;;;4999221;28;20057;-64
2022/08/21 11:03:48;;;;;;;7.53;2.15;;;22.90;99.90;;;;;;4998093;28;20116;-63
2022/08/21 11:06:27;;;;;;;5.45;1.60;;;22.90;99.90;;;;;;5013595;28;20050;-63
2022/08/21 11:09:04;;;;;;;4.97;1.50;;;23.00;99.90;;;;;;4999910;28;20038;-61
2022/08/21 11:11:36;;;;;;;7.80;1.52;;;23.00;99.90;;;;;;5006488;28;20037;-62
2022/08/21 11:14:11;;;;;;;5.70;1.05;;;23.30;99.90;;;;;;5030343;28;20036;-61
2022/08/21 11:16:51;;;;;;;6.70;1.30;;;23.10;99.90;;;;;;5019603;28;20384;-61
2022/08/21 11:19:59;;;;;;;8.82;1.80;;;23.10;99.90;;;;;;5013143;28;20072;-61
2022/08/21 11:22:49;;;;;;;6.32;1.67;;;23.00;99.90;;;;;;4982952;28;20049;-62
2022/08/21 11:25:36;;;;;;;9.60;1.40;;;22.70;99.90;;;;;;5011535;28;20103;-60
2022/08/21 11:28:26;;;;;;;6.25;1.40;;;23.20;99.90;;;;;;5014644;28;20045;-61
2022/08/21 11:31:16;;;;;;;10.25;1.25;;;23.20;99.90;;;;;;5013170;28;20056;-62
2022/08/21 11:33:48;;;;;;;6.70;1.30;;;23.50;99.90;;;;;;5011577;28;20410;-62
2022/08/21 11:36:23;;;;;;;5.45;1.48;;;23.70;99.90;;;;;;5030018;28;20049;-62
2022/08/21 11:38:56;;;;;;;;;;;23.70;99.90;;;;;;5029626;28;20086;-63
2022/08/21 11:41:22;;;;;;;4.88;1.38;;;23.80;99.90;;;;;;5030114;28;19917;-62
2022/08/21 11:44:10;;;;;;;10.00;2.17;;;23.90;99.90;;;;;;5030087;28;20095;-63
2022/08/21 11:47:07;;;;;;;7.63;1.23;;;24.10;99.90;;;;;;5022772;28;20471;-62
2022/08/21 11:49:49;;;;;;;5.75;1.35;;;24.00;99.90;;;;;;4968411;28;20057;-61
2022/08/21 11:52:18;;;;;;;9.15;1.52;;;24.10;99.90;;;;;;5015808;28;20044;-60
2022/08/21 11:54:57;;;;;;;7.50;1.33;;;24.20;99.90;;;;;;5008102;28;20712;-61
2022/08/21 11:57:30;;;;;;;9.60;1.30;;;24.10;99.90;;;;;;5029841;28;20460;-63
2022/08/21 12:00:25;;;;;;;8.07;1.20;;;24.40;99.90;;;;;;5029375;28;20105;-61
2022/08/21 12:02:58;;;;;;;8.38;1.88;;;24.00;99.90;;;;;;5011885;28;20053;-62
2022/08/21 12:05:30;;;;;;;9.10;1.40;;;24.10;99.90;;;;;;5019779;28;20058;-63
2022/08/21 12:08:25;;;;;;;7.50;1.80;;;24.20;99.90;;;;;;5010134;28;20075;-62
2022/08/21 12:11:02;;;;;;;5.10;1.33;;;24.20;99.90;;;;;;4999475;28;20557;-62
2022/08/21 12:13:31;;;;;;;9.32;1.73;;;24.00;99.90;;;;;;5010126;28;20512;-63
2022/08/21 12:16:09;;;;;;;7.22;1.92;;;24.40;99.90;;;;;;5014052;28;20105;-62
2022/08/21 12:18:37;;;;;;;5.07;1.27;;;24.10;99.90;;;;;;5009923;28;20052;-62
2022/08/21 12:21:26;;;;;;;11.77;1.55;;;24.10;99.90;;;;;;5013568;28;20053;-63
2022/08/21 12:24:03;;;;;;;7.43;1.73;;;24.00;99.90;;;;;;5006563;28;20488;-62
2022/08/21 12:26:35;;;;;;;8.07;1.17;;;24.10;99.90;;;;;;5027928;28;20479;-64
2022/08/21 12:29:12;;;;;;;8.20;2.00;;;23.90;99.90;;;;;;5034136;28;20026;-62
2022/08/21 12:31:51;;;;;;;6.78;1.50;;;24.10;99.90;;;;;;5033793;28;20044;-63
2022/08/21 12:34:18;;;;;;;8.30;1.33;;;24.20;99.90;;;;;;5016283;28;20152;-62
2022/08/21 12:37:04;;;;;;;7.10;1.45;;;24.30;99.90;;;;;;5023911;28;20479;-62
2022/08/21 12:39:32;;;;;;;7.43;1.40;;;23.50;99.90;;;;;;4996121;28;20057;-63
2022/08/21 12:42:12;;;;;;;6.22;1.67;;;24.00;99.90;;;;;;5019174;28;20411;-62
2022/08/21 12:44:57;;;;;;;10.05;1.75;;;24.00;99.90;;;;;;5016003;28;20053;-62
2022/08/21 12:47:58;;;;;;;7.63;1.30;;;23.90;99.90;;;;;;5032845;28;20492;-64
2022/08/21 12:50:40;;;;;;;7.57;1.10;;;23.70;99.90;;;;;;5008052;28;20085;-62
2022/08/21 12:53:50;;;;;;;7.65;1.70;;;23.70;99.90;;;;;;5019188;28;20488;-62
2022/08/21 12:56:22;;;;;;;5.53;1.42;;;24.00;99.90;;;;;;5012821;28;20565;-62
2022/08/21 12:58:51;;;;;;;8.75;1.95;;;23.80;99.90;;;;;;5033645;28;20128;-63